Time;durP1;ratioP1;P1;durP2;ratioP2;P2;SDS_P1;SDS_P2;PMS_P1;PMS_P2;Temp;Humidity;BMP_temperature;BMP_pressure;BME280_temperature;BME280_humidity;BME280_pressure;Samples;Min_cycle;Max_cycle;Signal;HPM_P1;HPM_P2
2021/05/07 00:01:17;;;;;;;2.55;1.67;;;15.10;99.90;;;;;;4956525;29;20039;-76
2021/05/07 00:03:43;;;;;;;3.42;1.90;;;15.10;99.90;;;;;;4956681;29;20051;-76
2021/05/07 00:06:10;;;;;;;2.22;1.67;;;15.10;99.90;;;;;;4956399;29;20042;-76
2021/05/07 00:08:38;;;;;;;6.72;2.20;;;15.10;99.90;;;;;;4956260;29;20035;-76
2021/05/07 00:11:08;;;;;;;3.10;1.65;;;15.10;99.90;;;;;;4939329;29;20466;-76
2021/05/07 00:13:34;;;;;;;5.22;2.10;;;15.10;99.90;;;;;;4938852;29;20474;-76
2021/05/07 00:16:00;;;;;;;3.95;1.73;;;15.10;99.90;;;;;;4956382;29;20482;-76
2021/05/07 00:18:26;;;;;;;5.93;1.90;;;15.20;99.90;;;;;;4956498;29;20038;-76
2021/05/07 00:20:52;;;;;;;4.00;1.70;;;15.20;99.90;;;;;;4956468;29;20043;-76
2021/05/07 00:23:18;;;;;;;2.38;1.40;;;15.10;99.90;;;;;;4956039;29;20390;-76
2021/05/07 00:25:47;;;;;;;6.03;1.75;;;15.10;99.90;;;;;;4956337;29;20036;-76
2021/05/07 00:28:16;;;;;;;3.03;1.80;;;15.10;99.90;;;;;;4956922;29;20479;-76
2021/05/07 00:30:41;;;;;;;4.70;1.80;;;15.00;99.90;;;;;;4956045;29;20491;-76
2021/05/07 00:33:08;;;;;;;3.83;1.70;;;15.00;99.90;;;;;;4956390;29;20054;-76
2021/05/07 00:35:35;;;;;;;4.80;1.48;;;15.00;99.90;;;;;;4939227;29;20483;-76
2021/05/07 00:38:02;;;;;;;2.97;1.73;;;14.90;99.90;;;;;;4956323;29;20043;-77
2021/05/07 00:40:28;;;;;;;7.25;1.83;;;14.90;99.90;;;;;;4938716;29;20122;-77
2021/05/07 00:42:54;;;;;;;3.40;1.67;;;15.00;99.90;;;;;;4956253;29;20118;-76
2021/05/07 00:45:20;;;;;;;4.88;1.83;;;14.90;99.90;;;;;;4955989;29;20039;-76
2021/05/07 00:47:56;;;;;;;6.30;1.90;;;14.90;99.90;;;;;;4938993;29;20027;-76
2021/05/07 00:50:25;;;;;;;4.15;1.90;;;14.90;99.90;;;;;;4939140;29;20399;-77
2021/05/07 00:52:54;;;;;;;5.32;1.70;;;14.90;99.90;;;;;;4956190;29;20040;-76
2021/05/07 00:55:20;;;;;;;4.20;1.75;;;14.90;99.90;;;;;;4938910;29;20038;-76
2021/05/07 00:57:45;;;;;;;3.40;1.30;;;14.90;99.90;;;;;;4954770;29;20119;-76
2021/05/07 01:00:12;;;;;;;3.42;1.40;;;14.90;99.90;;;;;;4956035;29;20154;-76
2021/05/07 01:02:38;;;;;;;2.15;1.23;;;14.90;99.90;;;;;;4955768;29;20035;-76
2021/05/07 01:05:06;;;;;;;5.00;1.50;;;14.90;99.90;;;;;;4955789;29;20118;-76
2021/05/07 01:07:32;;;;;;;2.67;1.20;;;14.80;99.90;;;;;;4954733;29;20035;-76
2021/05/07 01:10:00;;;;;;;4.13;1.63;;;14.70;99.90;;;;;;4939211;29;20075;-76
2021/05/07 01:12:28;;;;;;;2.50;1.08;;;14.60;99.90;;;;;;4954721;29;20053;-76
2021/05/07 01:15:04;;;;;;;2.60;0.90;;;14.60;99.90;;;;;;4955966;29;20043;-76
2021/05/07 01:17:30;;;;;;;2.17;1.10;;;14.60;99.90;;;;;;4955685;29;20043;-76
2021/05/07 01:20:04;;;;;;;2.20;0.90;;;14.60;99.90;;;;;;4955813;29;20043;-76
2021/05/07 01:22:30;;;;;;;1.83;1.23;;;14.70;99.90;;;;;;4938502;29;20517;-76
2021/05/07 01:24:56;;;;;;;3.38;1.00;;;14.60;99.90;;;;;;4955907;28;20129;-76
2021/05/07 01:27:22;;;;;;;2.28;1.25;;;14.60;99.90;;;;;;4959351;29;20034;-76
2021/05/07 01:29:48;;;;;;;4.25;1.27;;;14.50;99.90;;;;;;4959617;29;20062;-76
2021/05/07 01:32:13;;;;;;;1.90;1.30;;;14.50;99.90;;;;;;4959428;29;20039;-76
2021/05/07 01:34:39;;;;;;;2.80;1.65;;;14.40;99.90;;;;;;4959749;29;20441;-76
2021/05/07 01:37:05;;;;;;;2.83;1.02;;;14.40;99.90;;;;;;4959085;29;20177;-76
2021/05/07 01:39:31;;;;;;;1.83;1.30;;;14.30;99.90;;;;;;4959742;29;20122;-76
2021/05/07 01:41:57;;;;;;;1.90;1.15;;;14.30;99.90;;;;;;4958846;29;20066;-76
2021/05/07 01:44:22;;;;;;;1.90;1.10;;;14.20;99.90;;;;;;4959469;29;20426;-76
2021/05/07 01:46:48;;;;;;;1.23;1.05;;;14.20;99.90;;;;;;4941876;29;20040;-76
2021/05/07 01:49:16;;;;;;;3.50;1.30;;;14.20;99.90;;;;;;4958624;29;20031;-76
2021/05/07 01:51:41;;;;;;;2.35;1.55;;;14.10;99.90;;;;;;4958792;29;20051;-76
2021/05/07 01:54:07;;;;;;;2.03;1.42;;;14.00;99.90;;;;;;4958721;29;20556;-76
2021/05/07 01:56:33;;;;;;;1.33;1.05;;;13.90;99.90;;;;;;4958708;29;20043;-76
2021/05/07 01:58:59;;;;;;;1.63;1.08;;;13.90;99.90;;;;;;4958838;29;20039;-76
2021/05/07 02:01:24;;;;;;;2.25;1.10;;;13.90;99.90;;;;;;4958810;29;20053;-76
2021/05/07 02:03:50;;;;;;;4.65;1.50;;;13.90;99.90;;;;;;4958915;29;20039;-76
2021/05/07 02:06:16;;;;;;;1.25;1.10;;;14.00;99.90;;;;;;4958512;29;20043;-76
2021/05/07 02:08:42;;;;;;;0.95;0.88;;;14.00;99.90;;;;;;4958917;29;20046;-76
2021/05/07 02:11:08;;;;;;;1.33;1.10;;;13.90;99.90;;;;;;4958708;29;20517;-76
2021/05/07 02:13:33;;;;;;;2.03;1.20;;;13.90;99.90;;;;;;4957363;29;20075;-76
2021/05/07 02:15:59;;;;;;;1.67;1.20;;;13.80;99.90;;;;;;4958230;29;20039;-76
2021/05/07 02:18:25;;;;;;;1.08;0.98;;;13.70;99.90;;;;;;4958742;29;20091;-76
2021/05/07 02:20:54;;;;;;;1.65;0.77;;;13.60;99.90;;;;;;4958596;29;20039;-76
2021/05/07 02:23:21;;;;;;;1.33;0.80;;;13.50;99.90;;;;;;4958390;29;20051;-76
2021/05/07 02:25:47;;;;;;;1.15;0.90;;;13.40;99.90;;;;;;4958372;29;20051;-76
2021/05/07 02:28:13;;;;;;;1.95;0.60;;;13.30;99.90;;;;;;4958408;29;20505;-76
2021/05/07 02:30:39;;;;;;;1.40;0.80;;;13.30;99.90;;;;;;4957114;29;20043;-76
2021/05/07 02:33:05;;;;;;;2.00;0.80;;;13.20;99.90;;;;;;4958073;29;20372;-76
2021/05/07 02:35:32;;;;;;;1.02;0.88;;;13.30;99.90;;;;;;4958439;29;20043;-76
2021/05/07 02:37:59;;;;;;;0.88;0.77;;;13.30;99.90;;;;;;4956540;28;20486;-77
2021/05/07 02:40:25;;;;;;;1.25;1.10;;;13.30;99.90;;;;;;4956704;29;20047;-77
2021/05/07 02:42:51;;;;;;;0.75;0.60;;;13.30;99.90;;;;;;4958504;29;20577;-77
2021/05/07 02:45:17;;;;;;;1.38;1.02;;;13.30;99.90;;;;;;4958203;29;20043;-76
2021/05/07 02:47:44;;;;;;;1.67;0.80;;;13.20;99.90;;;;;;4958912;29;20479;-76
2021/05/07 02:50:13;;;;;;;2.33;0.70;;;13.20;99.90;;;;;;4958327;29;20146;-76
2021/05/07 02:52:40;;;;;;;1.90;0.73;;;13.30;99.90;;;;;;4958298;29;20090;-76
2021/05/07 02:55:07;;;;;;;0.65;0.50;;;13.30;99.90;;;;;;4958353;29;20027;-76
2021/05/07 02:57:33;;;;;;;0.40;0.40;;;13.30;99.90;;;;;;4957778;29;20570;-76
2021/05/07 02:59:59;;;;;;;1.05;0.80;;;13.30;99.90;;;;;;4957753;29;20135;-76
2021/05/07 03:02:25;;;;;;;0.55;0.55;;;13.30;99.90;;;;;;4958321;29;20120;-76
2021/05/07 03:04:50;;;;;;;0.57;0.50;;;13.30;99.90;;;;;;4957723;29;20043;-76
2021/05/07 03:07:17;;;;;;;1.10;0.60;;;13.30;99.90;;;;;;4957710;29;20039;-76
2021/05/07 03:09:43;;;;;;;0.85;0.45;;;13.30;99.90;;;;;;4956944;29;20386;-76
2021/05/07 03:12:09;;;;;;;1.20;0.40;;;13.20;99.90;;;;;;4957630;29;20039;-76
2021/05/07 03:14:35;;;;;;;2.25;0.55;;;13.30;99.90;;;;;;4957359;29;20047;-76
2021/05/07 03:17:01;;;;;;;1.27;0.50;;;13.20;99.90;;;;;;4957776;29;20410;-76
2021/05/07 03:19:27;;;;;;;1.55;0.45;;;13.20;99.90;;;;;;4957871;29;20050;-76
2021/05/07 03:21:52;;;;;;;0.90;0.43;;;13.30;99.90;;;;;;4957683;29;20043;-76
2021/05/07 03:24:18;;;;;;;0.57;0.40;;;13.30;99.90;;;;;;4958116;29;20098;-76
2021/05/07 03:26:44;;;;;;;0.40;0.40;;;13.20;99.90;;;;;;4957334;29;20135;-76
2021/05/07 03:29:10;;;;;;;0.50;0.50;;;13.20;99.90;;;;;;4955874;29;20039;-76
2021/05/07 03:31:36;;;;;;;0.32;0.32;;;13.20;99.90;;;;;;4957542;29;20054;-76
2021/05/07 03:34:03;;;;;;;0.77;0.32;;;13.10;99.90;;;;;;4958031;29;20043;-76
2021/05/07 03:36:30;;;;;;;0.40;0.30;;;13.10;99.90;;;;;;4957414;29;20063;-76
2021/05/07 03:38:57;;;;;;;1.15;0.30;;;13.10;99.90;;;;;;4957093;29;20506;-76
2021/05/07 03:41:23;;;;;;;1.10;0.45;;;13.10;99.90;;;;;;4957147;29;20070;-76
2021/05/07 03:43:49;;;;;;;0.35;0.32;;;13.10;99.90;;;;;;4956601;29;20521;-76
2021/05/07 03:46:15;;;;;;;0.73;0.32;;;13.20;99.90;;;;;;4956705;29;20035;-76
2021/05/07 03:48:41;;;;;;;1.48;0.28;;;13.10;99.90;;;;;;4956278;28;20038;-76
2021/05/07 03:51:07;;;;;;;0.40;0.40;;;13.20;99.90;;;;;;4956925;29;20051;-76
2021/05/07 03:53:33;;;;;;;0.30;0.30;;;13.20;99.90;;;;;;4956887;29;20070;-76
2021/05/07 03:55:59;;;;;;;0.45;0.40;;;13.10;99.90;;;;;;4955647;29;20405;-76
2021/05/07 03:58:25;;;;;;;0.77;0.30;;;13.20;99.90;;;;;;4956523;29;20494;-76
2021/05/07 04:00:51;;;;;;;1.27;0.40;;;13.10;99.90;;;;;;4956581;29;20043;-76
2021/05/07 04:03:17;;;;;;;0.70;0.30;;;13.20;99.90;;;;;;4956716;29;20043;-76
2021/05/07 04:05:45;;;;;;;0.55;0.20;;;13.10;99.90;;;;;;4956395;29;20054;-76
2021/05/07 04:08:15;;;;;;;0.20;0.20;;;13.10;99.90;;;;;;4956881;29;20039;-76
2021/05/07 04:10:46;;;;;;;0.30;0.30;;;13.10;99.90;;;;;;4956481;29;20043;-77
2021/05/07 04:15:39;;;;;;;1.60;0.35;;;13.10;99.90;;;;;;4956614;29;20047;-78
2021/05/07 04:18:05;;;;;;;0.30;0.30;;;13.10;99.90;;;;;;4956623;29;20039;-77
2021/05/07 04:20:31;;;;;;;0.30;0.25;;;13.10;99.90;;;;;;4956574;29;20106;-78
2021/05/07 04:22:56;;;;;;;0.20;0.20;;;13.10;99.90;;;;;;4956280;29;20047;-77
2021/05/07 04:25:23;;;;;;;0.75;0.20;;;13.10;99.90;;;;;;4956033;29;20486;-77
2021/05/07 04:27:48;;;;;;;0.10;0.10;;;13.10;99.90;;;;;;4955215;29;20035;-78
2021/05/07 04:30:15;;;;;;;0.10;0.10;;;13.20;99.90;;;;;;4954984;29;20066;-77
2021/05/07 04:32:40;;;;;;;0.52;0.20;;;13.10;99.90;;;;;;4956091;29;20031;-77
2021/05/07 04:35:08;;;;;;;0.73;0.20;;;13.20;99.90;;;;;;4956202;29;20035;-76
2021/05/07 04:37:33;;;;;;;0.15;0.10;;;13.10;99.90;;;;;;4956179;29;20039;-77
2021/05/07 04:39:59;;;;;;;0.55;0.20;;;13.10;99.90;;;;;;4955978;29;20494;-77
2021/05/07 04:42:25;;;;;;;0.20;0.20;;;13.10;99.90;;;;;;4956471;29;20190;-76
2021/05/07 04:44:51;;;;;;;0.43;0.35;;;13.10;99.90;;;;;;4954701;29;20032;-76
2021/05/07 04:47:17;;;;;;;0.35;0.20;;;13.10;99.90;;;;;;4955983;29;20133;-76
2021/05/07 04:49:43;;;;;;;0.75;0.20;;;13.10;99.90;;;;;;4957001;29;20032;-77
2021/05/07 04:52:09;;;;;;;0.20;0.20;;;13.20;99.90;;;;;;4956188;29;20039;-77
2021/05/07 04:54:35;;;;;;;8.48;4.70;;;13.20;99.90;;;;;;4956182;29;20099;-77
2021/05/07 04:57:01;;;;;;;4.95;3.38;;;13.10;99.90;;;;;;4956403;29;20062;-77
2021/05/07 04:59:27;;;;;;;4.68;2.40;;;13.10;99.90;;;;;;4939573;29;20083;-77
2021/05/07 05:01:53;;;;;;;2.13;1.40;;;13.10;99.90;;;;;;4958972;29;20078;-77
2021/05/07 05:04:19;;;;;;;4.40;3.28;;;13.10;99.90;;;;;;4957234;29;20046;-77
2021/05/07 05:06:44;;;;;;;0.70;0.70;;;13.20;99.90;;;;;;4958565;29;20074;-77
2021/05/07 05:09:10;;;;;;;4.00;2.97;;;13.20;99.90;;;;;;4959486;29;20027;-77
2021/05/07 05:11:36;;;;;;;5.05;3.08;;;13.20;99.90;;;;;;4960355;29;20047;-77
2021/05/07 05:14:02;;;;;;;6.60;4.20;;;13.30;99.90;;;;;;4958580;29;20031;-77
2021/05/07 05:16:28;;;;;;;1.33;1.10;;;13.40;99.90;;;;;;4959796;29;20521;-77
2021/05/07 05:18:54;;;;;;;18.17;12.05;;;13.40;99.90;;;;;;4959978;29;20031;-77
2021/05/07 05:21:23;;;;;;;0.70;0.70;;;13.40;99.90;;;;;;4958616;29;20051;-76
2021/05/07 05:23:50;;;;;;;0.47;0.35;;;13.50;99.90;;;;;;4959841;29;20071;-76
2021/05/07 05:26:16;;;;;;;1.27;0.95;;;13.60;99.90;;;;;;4959763;29;20074;-78
2021/05/07 05:28:42;;;;;;;6.18;3.33;;;13.60;99.90;;;;;;4959215;29;20035;-77
2021/05/07 05:31:08;;;;;;;10.73;6.18;;;13.80;99.90;;;;;;4958304;29;20050;-77
2021/05/07 05:33:34;;;;;;;9.32;5.72;;;13.80;99.90;;;;;;4958910;29;20039;-77
2021/05/07 05:36:00;;;;;;;6.13;4.25;;;13.90;99.90;;;;;;4959656;29;20047;-77
2021/05/07 05:38:26;;;;;;;3.65;2.42;;;13.80;99.90;;;;;;4958747;29;20043;-79
2021/05/07 05:40:52;;;;;;;0.63;0.45;;;13.80;99.90;;;;;;4941550;29;20059;-76
2021/05/07 05:43:18;;;;;;;4.25;2.63;;;13.90;99.90;;;;;;4960005;29;20042;-76
2021/05/07 05:45:44;;;;;;;0.80;0.68;;;14.10;99.90;;;;;;4959002;29;20035;-76
2021/05/07 05:48:15;;;;;;;0.88;0.77;;;14.30;99.90;;;;;;4959123;29;20043;-76
2021/05/07 05:50:42;;;;;;;0.50;0.40;;;14.40;99.90;;;;;;4959266;29;20051;-75
2021/05/07 05:53:09;;;;;;;2.33;1.48;;;14.20;99.90;;;;;;4951744;29;20098;-75
2021/05/07 05:55:39;;;;;;;3.65;2.20;;;14.20;99.90;;;;;;4957077;29;20043;-75
2021/05/07 05:58:05;;;;;;;0.32;0.30;;;14.20;99.90;;;;;;4958756;29;20077;-74
2021/05/07 06:00:32;;;;;;;3.88;1.25;;;14.20;99.90;;;;;;4936573;29;20102;-75
2021/05/07 06:02:57;;;;;;;0.82;0.50;;;14.30;99.90;;;;;;4956431;29;20047;-75
2021/05/07 06:05:23;;;;;;;0.70;0.47;;;14.20;99.90;;;;;;4957347;29;20109;-75
2021/05/07 06:07:49;;;;;;;0.25;0.20;;;14.20;99.90;;;;;;4958347;29;20070;-75
2021/05/07 06:10:16;;;;;;;3.92;2.60;;;14.30;99.90;;;;;;4957351;29;20073;-75
2021/05/07 06:12:44;;;;;;;1.77;1.52;;;14.30;99.90;;;;;;4955890;28;20221;-75
2021/05/07 06:15:10;;;;;;;2.25;1.05;;;14.40;99.90;;;;;;4958344;29;20050;-75
2021/05/07 06:17:47;;;;;;;1.05;0.65;;;14.60;99.90;;;;;;4958761;29;20130;-75
2021/05/07 06:20:15;;;;;;;1.05;0.40;;;14.80;99.90;;;;;;4958451;29;20502;-75
2021/05/07 06:22:43;;;;;;;0.32;0.28;;;15.00;99.90;;;;;;4958845;29;20071;-75
2021/05/07 06:25:13;;;;;;;1.20;0.98;;;14.90;99.90;;;;;;4941231;29;20043;-75
2021/05/07 06:27:40;;;;;;;0.52;0.50;;;15.00;99.90;;;;;;4957969;29;20043;-75
2021/05/07 06:30:08;;;;;;;1.38;0.30;;;15.10;99.90;;;;;;4956540;29;20043;-74
2021/05/07 06:32:34;;;;;;;2.10;0.70;;;15.10;99.90;;;;;;4954672;29;20141;-75
2021/05/07 06:35:00;;;;;;;0.52;0.30;;;15.30;99.90;;;;;;4955965;29;20141;-75
2021/05/07 06:37:26;;;;;;;1.17;0.38;;;15.20;99.90;;;;;;4964429;29;20047;-73
2021/05/07 06:39:52;;;;;;;0.20;0.20;;;15.00;99.90;;;;;;4959983;29;20043;-75
2021/05/07 06:42:19;;;;;;;0.15;0.10;;;15.40;99.90;;;;;;4957452;29;20173;-76
2021/05/07 06:44:45;;;;;;;0.20;0.20;;;15.70;99.90;;;;;;4957909;29;20031;-77
2021/05/07 06:47:11;;;;;;;1.15;0.60;;;15.60;99.90;;;;;;4957987;29;20038;-76
2021/05/07 06:49:37;;;;;;;0.90;0.50;;;15.60;99.90;;;;;;4958323;29;20114;-77
2021/05/07 06:52:04;;;;;;;1.58;0.82;;;15.60;99.90;;;;;;4958522;29;20094;-76
2021/05/07 06:54:30;;;;;;;0.20;0.20;;;15.80;99.90;;;;;;4958332;29;20050;-76
2021/05/07 06:56:57;;;;;;;0.20;0.20;;;15.50;99.90;;;;;;4958487;29;20043;-77
2021/05/07 06:59:27;;;;;;;1.52;1.42;;;15.60;99.90;;;;;;4950842;29;20161;-76
2021/05/07 07:01:53;;;;;;;0.30;0.23;;;15.80;99.90;;;;;;4951947;29;20118;-76
2021/05/07 07:04:19;;;;;;;0.95;0.70;;;15.70;99.90;;;;;;4956779;29;20274;-75
2021/05/07 07:06:45;;;;;;;1.75;0.63;;;15.70;99.90;;;;;;4957723;29;20039;-75
2021/05/07 07:09:12;;;;;;;0.32;0.30;;;15.70;99.90;;;;;;4957652;29;20498;-75
2021/05/07 07:11:38;;;;;;;0.15;0.15;;;15.90;99.90;;;;;;4957903;29;20074;-75
2021/05/07 07:14:05;;;;;;;0.50;0.40;;;16.10;99.90;;;;;;4956836;29;20046;-76
2021/05/07 07:16:30;;;;;;;1.27;0.20;;;16.00;99.90;;;;;;4957765;29;20039;-76
2021/05/07 07:18:56;;;;;;;1.85;0.40;;;16.10;99.90;;;;;;4958171;29;20051;-76
2021/05/07 07:21:22;;;;;;;0.28;0.28;;;16.30;99.90;;;;;;4940393;29;20047;-76
2021/05/07 07:23:48;;;;;;;0.20;0.20;;;16.40;99.90;;;;;;4956929;28;20046;-76
2021/05/07 07:26:14;;;;;;;0.93;0.50;;;16.20;99.90;;;;;;4957263;29;20023;-75
2021/05/07 07:28:43;;;;;;;0.15;0.15;;;16.70;99.90;;;;;;4957789;29;20043;-75
2021/05/07 07:31:09;;;;;;;1.20;0.50;;;16.90;99.90;;;;;;4939989;29;20089;-75
2021/05/07 07:33:35;;;;;;;1.35;0.28;;;16.90;99.90;;;;;;4957820;29;20126;-77
2021/05/07 07:36:01;;;;;;;1.42;0.40;;;16.30;99.90;;;;;;4958003;29;20070;-76
2021/05/07 07:38:26;;;;;;;0.25;0.25;;;16.50;99.90;;;;;;4957476;29;20046;-76
2021/05/07 07:40:52;;;;;;;0.43;0.40;;;16.60;99.90;;;;;;4957169;29;20051;-76
2021/05/07 07:43:20;;;;;;;0.40;0.30;;;16.90;99.90;;;;;;4956650;29;20518;-75
2021/05/07 07:45:47;;;;;;;0.30;0.30;;;17.00;99.90;;;;;;4956841;29;20427;-76
2021/05/07 07:48:13;;;;;;;0.98;0.30;;;17.30;99.90;;;;;;4956624;29;20553;-76
2021/05/07 07:50:39;;;;;;;1.38;0.40;;;16.90;99.90;;;;;;4956948;29;20051;-76
2021/05/07 07:53:05;;;;;;;0.20;0.20;;;17.40;99.90;;;;;;4956843;29;20035;-76
2021/05/07 07:55:30;;;;;;;1.10;0.30;;;17.20;99.90;;;;;;4957073;29;20057;-76
2021/05/07 07:57:56;;;;;;;0.30;0.30;;;16.80;99.90;;;;;;4939472;29;20035;-76
2021/05/07 08:00:23;;;;;;;1.70;0.20;;;16.90;99.90;;;;;;4939035;29;20039;-76
2021/05/07 08:02:48;;;;;;;0.40;0.40;;;17.10;99.90;;;;;;4956438;29;20506;-76
2021/05/07 08:05:15;;;;;;;1.67;0.20;;;16.80;99.90;;;;;;4956645;29;20042;-76
2021/05/07 08:07:42;;;;;;;0.40;0.38;;;16.50;99.90;;;;;;4956657;29;20042;-76
2021/05/07 08:10:08;;;;;;;0.73;0.38;;;16.70;99.90;;;;;;4956789;29;20070;-76
2021/05/07 08:12:35;;;;;;;0.45;0.45;;;16.90;99.90;;;;;;4956685;29;20027;-76
2021/05/07 08:15:00;;;;;;;0.75;0.20;;;17.10;99.90;;;;;;4956235;29;20082;-76
2021/05/07 08:17:26;;;;;;;0.25;0.20;;;16.80;99.90;;;;;;4939339;29;20130;-76
2021/05/07 08:19:52;;;;;;;1.08;0.70;;;16.70;99.90;;;;;;4956741;29;20035;-76
2021/05/07 08:22:18;;;;;;;0.30;0.30;;;16.60;99.90;;;;;;4956183;29;20047;-76
2021/05/07 08:24:44;;;;;;;0.22;0.22;;;16.40;99.90;;;;;;4939418;29;20047;-76
2021/05/07 08:27:11;;;;;;;0.30;0.30;;;17.20;99.90;;;;;;4938772;29;20062;-77
2021/05/07 08:29:37;;;;;;;0.45;0.30;;;17.00;99.90;;;;;;4955956;29;20557;-77
2021/05/07 08:32:03;;;;;;;1.27;0.20;;;16.90;99.90;;;;;;4939086;29;20498;-83
2021/05/07 08:34:29;;;;;;;0.20;0.20;;;17.40;99.90;;;;;;4956177;29;20050;-82
2021/05/07 08:36:55;;;;;;;0.22;0.22;;;17.50;99.90;;;;;;4956693;29;20031;-82
2021/05/07 08:39:21;;;;;;;0.98;0.30;;;17.50;99.90;;;;;;4938783;29;20043;-81
2021/05/07 08:41:48;;;;;;;1.65;0.30;;;17.00;99.90;;;;;;4943966;29;20091;-82
2021/05/07 08:44:15;;;;;;;1.40;0.40;;;16.60;99.90;;;;;;4919410;29;20035;-83
2021/05/07 08:46:43;;;;;;;0.43;0.38;;;16.80;99.90;;;;;;4935566;29;20051;-81
2021/05/07 08:49:10;;;;;;;1.40;0.40;;;17.20;99.90;;;;;;4919908;29;20032;-82
2021/05/07 08:51:38;;;;;;;0.30;0.30;;;17.30;99.90;;;;;;4919863;29;20566;-82
2021/05/07 08:54:04;;;;;;;1.70;0.30;;;17.40;99.90;;;;;;4938059;29;20187;-82
2021/05/07 08:56:30;;;;;;;0.45;0.20;;;17.20;99.90;;;;;;4937324;29;20067;-81
2021/05/07 08:58:56;;;;;;;0.30;0.30;;;17.10;99.90;;;;;;4919862;29;20078;-84
2021/05/07 09:01:22;;;;;;;0.90;0.43;;;17.10;99.90;;;;;;4919757;29;20050;-79
2021/05/07 09:03:48;;;;;;;0.80;0.50;;;17.40;99.90;;;;;;4937150;29;20047;-82
2021/05/07 09:06:21;;;;;;;0.30;0.30;;;17.50;99.90;;;;;;4920446;29;20040;-81
2021/05/07 09:08:49;;;;;;;0.20;0.20;;;17.70;99.90;;;;;;4919782;29;20532;-84
2021/05/07 09:11:19;;;;;;;0.30;0.30;;;18.00;99.90;;;;;;4920784;29;20036;-81
2021/05/07 09:13:45;;;;;;;0.20;0.20;;;18.80;99.90;;;;;;4936959;29;20135;-84
2021/05/07 09:16:12;;;;;;;0.47;0.30;;;18.50;99.90;;;;;;4936976;29;20131;-84
2021/05/07 09:18:51;;;;;;;0.20;0.20;;;18.50;99.90;;;;;;4937216;29;20047;-81
2021/05/07 09:21:17;;;;;;;0.70;0.38;;;18.70;99.90;;;;;;4931360;29;20040;-82
2021/05/07 09:23:47;;;;;;;0.85;0.30;;;19.10;99.90;;;;;;4934954;29;20047;-82
2021/05/07 09:26:14;;;;;;;0.68;0.40;;;18.80;99.90;;;;;;4918224;29;20130;-78
2021/05/07 09:28:51;;;;;;;0.50;0.40;;;18.10;99.90;;;;;;4936231;29;20031;-77
2021/05/07 09:31:19;;;;;;;0.40;0.35;;;18.20;99.90;;;;;;4935416;29;20259;-77
2021/05/07 09:33:47;;;;;;;0.43;0.43;;;18.20;99.90;;;;;;4928220;29;20043;-77
2021/05/07 09:36:27;;;;;;;0.40;0.40;;;19.00;99.90;;;;;;4915025;29;20044;-77
2021/05/07 09:38:54;;;;;;;0.50;0.50;;;18.50;99.90;;;;;;4935753;29;20039;-77
2021/05/07 09:41:20;;;;;;;0.85;0.35;;;19.40;99.90;;;;;;4920176;29;20070;-77
2021/05/07 09:43:46;;;;;;;0.40;0.40;;;18.90;99.90;;;;;;4932850;29;20126;-77
2021/05/07 09:46:12;;;;;;;0.35;0.30;;;18.50;99.90;;;;;;4933815;29;20155;-77
2021/05/07 09:48:42;;;;;;;0.32;0.30;;;18.60;99.90;;;;;;4938484;29;20047;-78
2021/05/07 09:51:10;;;;;;;0.30;0.30;;;18.40;99.90;;;;;;4938026;29;20043;-77
2021/05/07 09:53:37;;;;;;;0.30;0.20;;;17.80;99.90;;;;;;4936692;29;20127;-77
2021/05/07 09:56:18;;;;;;;0.30;0.30;;;17.30;99.90;;;;;;4936580;29;20040;-77
2021/05/07 09:58:44;;;;;;;;;;;16.80;99.90;;;;;;4938169;29;20044;-78
2021/05/07 10:01:10;;;;;;;1.05;0.40;;;17.10;99.90;;;;;;4937788;29;19997;-77
2021/05/07 10:03:37;;;;;;;1.00;0.60;;;17.40;99.90;;;;;;4937247;29;20073;-77
2021/05/07 10:06:04;;;;;;;0.75;0.40;;;17.60;99.90;;;;;;4936114;29;20078;-77
2021/05/07 10:08:42;;;;;;;0.40;0.40;;;17.90;99.90;;;;;;4937676;29;20043;-77
2021/05/07 10:11:10;;;;;;;1.23;0.52;;;18.10;99.90;;;;;;4937102;29;20094;-77
2021/05/07 10:13:37;;;;;;;3.40;0.40;;;18.10;99.90;;;;;;4937451;29;20040;-77
2021/05/07 10:16:06;;;;;;;0.30;0.30;;;18.00;99.90;;;;;;4936589;29;20040;-80
2021/05/07 10:18:34;;;;;;;0.40;0.35;;;17.70;99.90;;;;;;4937922;29;20039;-77
2021/05/07 10:21:06;;;;;;;1.30;0.40;;;18.30;99.90;;;;;;4937823;29;20130;-76
2021/05/07 10:23:33;;;;;;;0.20;0.20;;;18.30;99.90;;;;;;4938309;29;20063;-76
2021/05/07 10:26:10;;;;;;;2.08;0.40;;;18.40;99.90;;;;;;4938383;29;20047;-76
2021/05/07 10:28:46;;;;;;;0.32;0.32;;;18.40;99.90;;;;;;4936989;29;20139;-76
2021/05/07 10:31:15;;;;;;;1.65;0.40;;;18.20;99.90;;;;;;4941256;29;20102;-75
2021/05/07 10:33:43;;;;;;;0.30;0.30;;;18.50;99.90;;;;;;4938208;29;20036;-75
2021/05/07 10:36:09;;;;;;;1.05;0.63;;;18.70;99.90;;;;;;4938385;29;20042;-75
2021/05/07 10:38:35;;;;;;;0.20;0.20;;;18.40;99.90;;;;;;4938906;29;20126;-76
2021/05/07 10:41:08;;;;;;;0.30;0.30;;;18.10;99.90;;;;;;4943578;29;20117;-75
2021/05/07 10:43:44;;;;;;;0.30;0.30;;;18.50;99.90;;;;;;4956825;29;20035;-75
2021/05/07 10:46:24;;;;;;;0.75;0.60;;;18.50;99.90;;;;;;4957204;29;20035;-75
2021/05/07 10:48:55;;;;;;;2.10;0.43;;;18.30;99.90;;;;;;4958657;29;20039;-75
2021/05/07 10:51:25;;;;;;;0.70;0.38;;;17.90;99.90;;;;;;4956869;29;20047;-75
2021/05/07 10:53:52;;;;;;;0.32;0.32;;;18.10;99.90;;;;;;4957112;29;20043;-76
2021/05/07 10:56:24;;;;;;;0.40;0.40;;;17.60;99.90;;;;;;4957621;29;20125;-75
2021/05/07 10:58:52;;;;;;;0.52;0.40;;;17.50;99.90;;;;;;4956746;28;20042;-75
2021/05/07 11:01:22;;;;;;;0.70;0.50;;;17.40;99.90;;;;;;4957728;29;20105;-76
2021/05/07 11:04:10;;;;;;;0.60;0.60;;;17.30;99.90;;;;;;4958367;29;20054;-76
2021/05/07 11:06:38;;;;;;;1.80;0.95;;;17.40;99.90;;;;;;4957792;29;20053;-76
2021/05/07 11:09:18;;;;;;;0.70;0.70;;;17.60;99.90;;;;;;4957946;29;20039;-75
2021/05/07 11:11:45;;;;;;;0.93;0.60;;;17.90;99.90;;;;;;4957320;29;20036;-75
2021/05/07 11:14:23;;;;;;;1.40;1.15;;;17.70;99.90;;;;;;4957345;29;20047;-76
2021/05/07 11:16:51;;;;;;;0.60;0.60;;;18.30;99.90;;;;;;4957821;29;20087;-75
2021/05/07 11:19:23;;;;;;;0.80;0.60;;;18.30;99.90;;;;;;4957518;29;20490;-76
2021/05/07 11:21:58;;;;;;;0.52;0.52;;;18.30;99.80;;;;;;4957673;29;20042;-76
2021/05/07 11:24:26;;;;;;;0.50;0.50;;;18.70;98.90;;;;;;4957945;29;20054;-75
2021/05/07 11:26:52;;;;;;;0.40;0.40;;;18.80;98.60;;;;;;4956949;29;20068;-75
2021/05/07 11:29:27;;;;;;;0.50;0.50;;;19.10;97.00;;;;;;4957275;29;20043;-76
2021/05/07 11:31:53;;;;;;;0.40;0.40;;;19.50;95.90;;;;;;4957461;29;20047;-75
2021/05/07 11:34:28;;;;;;;2.38;0.50;;;19.10;96.20;;;;;;4957224;29;20054;-76
2021/05/07 11:36:58;;;;;;;0.40;0.30;;;18.90;95.70;;;;;;4957733;29;20122;-76
2021/05/07 11:39:24;;;;;;;0.50;0.50;;;18.80;96.00;;;;;;4957654;29;20054;-76
2021/05/07 11:41:49;;;;;;;0.50;0.50;;;19.00;97.00;;;;;;4957379;29;20110;-76
2021/05/07 11:44:15;;;;;;;0.30;0.30;;;18.50;96.00;;;;;;4957112;29;20419;-76
2021/05/07 11:46:41;;;;;;;1.45;0.30;;;18.20;96.60;;;;;;4957023;29;20043;-75
2021/05/07 11:49:07;;;;;;;0.20;0.20;;;17.80;96.10;;;;;;4956713;29;20035;-75
2021/05/07 11:51:34;;;;;;;0.85;0.50;;;17.80;97.70;;;;;;4957272;29;20051;-76
2021/05/07 11:54:00;;;;;;;0.30;0.30;;;17.90;95.50;;;;;;4956653;29;20031;-76
2021/05/07 11:56:28;;;;;;;0.30;0.30;;;18.40;96.50;;;;;;4955100;29;20060;-76
2021/05/07 11:58:54;;;;;;;1.65;0.30;;;18.90;94.40;;;;;;4955874;29;20054;-76
2021/05/07 12:01:24;;;;;;;0.30;0.30;;;18.60;93.20;;;;;;4956226;29;20050;-76
2021/05/07 12:03:52;;;;;;;0.30;0.30;;;18.30;95.10;;;;;;4956965;29;20047;-76
2021/05/07 12:06:25;;;;;;;0.52;0.40;;;18.20;95.70;;;;;;4957036;29;20086;-76
2021/05/07 12:08:52;;;;;;;0.43;0.30;;;18.20;93.40;;;;;;4956067;28;20035;-76
2021/05/07 12:11:18;;;;;;;0.40;0.40;;;18.30;94.90;;;;;;4957009;29;20066;-76
2021/05/07 12:13:46;;;;;;;0.30;0.30;;;18.30;95.80;;;;;;4956809;29;20035;-76
2021/05/07 12:16:12;;;;;;;0.30;0.30;;;18.50;95.10;;;;;;4956618;29;20070;-76
2021/05/07 12:18:52;;;;;;;0.30;0.30;;;18.60;94.20;;;;;;4956778;29;20031;-76
2021/05/07 12:21:19;;;;;;;0.30;0.30;;;18.60;93.60;;;;;;4956694;29;20141;-76
2021/05/07 12:23:49;;;;;;;0.35;0.35;;;18.90;92.00;;;;;;4956433;29;20041;-76
2021/05/07 12:26:17;;;;;;;4.07;0.57;;;19.10;91.70;;;;;;4956834;29;20043;-76
2021/05/07 12:29:00;;;;;;;0.60;0.60;;;19.60;90.40;;;;;;4956656;29;20561;-76
2021/05/07 12:31:33;;;;;;;1.33;0.50;;;19.40;91.20;;;;;;4956426;29;20039;-76
2021/05/07 12:33:59;;;;;;;0.50;0.50;;;19.20;92.70;;;;;;4956095;29;20054;-75
2021/05/07 12:36:25;;;;;;;0.52;0.52;;;19.30;92.00;;;;;;4954971;29;20353;-75
2021/05/07 12:38:54;;;;;;;0.50;0.50;;;19.30;92.90;;;;;;4956166;29;20114;-78
2021/05/07 12:41:22;;;;;;;0.50;0.30;;;19.20;92.00;;;;;;4955570;29;20486;-76
2021/05/07 12:43:49;;;;;;;0.47;0.40;;;19.10;93.90;;;;;;4955569;29;20078;-75
2021/05/07 12:46:16;;;;;;;0.40;0.35;;;19.30;93.60;;;;;;4951965;29;20055;-76
2021/05/07 12:48:50;;;;;;;0.50;0.50;;;18.80;90.70;;;;;;4955869;29;20498;-76
2021/05/07 12:51:17;;;;;;;0.32;0.32;;;18.50;92.00;;;;;;4938359;29;20043;-75